Lansdowne, Virginia
Current Conditions -  °F | °C
As of 7:35 AM on Friday 31 Oct 2014 (Local Time) from KJYO Reporting Station
Overcast Overcast  
Wind Chill: 37°   Ceiling: 5500
Heat Index: 37°   Visibility: 10mi
Dew Point: 37°   Wind: 0mph
Humidity: 100%   Direction: NA
Pressure: 30"   Gusts: NA
Location:  39.1846°N, 77.5476°W
Report Text: KJYO 311135Z AUTO 00000KT 10SM OVC055 03/03 A3000 RMK AO2
Loading
Personal Weather Stations






























Interactive Weather Map
Tropical Storm Tracking
New forecast layout! Learn more

10-Day Weather Forecast

Advertisements
Track Severe Weather on mobile